createdAt,value
2019-06-01T00:00:51.289Z,64.94
2019-06-01T00:03:27.079Z,64.94
2019-06-01T00:06:01.670Z,64.95
2019-06-01T00:08:36.288Z,64.95
2019-06-01T00:11:10.969Z,65.01
2019-06-01T00:13:45.815Z,64.98
2019-06-01T00:16:20.786Z,64.98
2019-06-01T00:18:55.483Z,64.88
2019-06-01T00:21:30.379Z,65.08
2019-06-01T00:24:05.378Z,65.04
2019-06-01T00:26:39.950Z,64.42
2019-06-01T00:29:14.653Z,64.93
2019-06-01T00:31:52.166Z,64.93
2019-06-01T00:34:27.157Z,64.80
2019-06-01T00:37:01.931Z,64.80
2019-06-01T00:39:38.253Z,65.21
2019-06-01T00:42:12.959Z,65.20
2019-06-01T00:44:48.485Z,65.21
2019-06-01T00:47:23.785Z,65.51
2019-06-01T00:49:58.287Z,65.54
2019-06-01T00:52:33.113Z,65.59
2019-06-01T00:55:08.277Z,65.97
2019-06-01T00:57:43.447Z,65.97
2019-06-01T01:00:18.318Z,65.68
2019-06-01T01:02:54.296Z,65.53
2019-06-01T01:05:29.309Z,65.33
2019-06-01T01:08:04.600Z,65.33
2019-06-01T01:10:39.968Z,65.65
2019-06-01T01:13:18.274Z,65.42
2019-06-01T01:15:53.531Z,65.21
2019-06-01T01:18:28.280Z,65.21
2019-06-01T01:21:03.283Z,65.52
2019-06-01T01:23:43.271Z,65.56
2019-06-01T01:26:27.456Z,65.42
2019-06-01T01:29:04.529Z,65.34
2019-06-01T01:31:39.302Z,65.71
2019-06-01T01:34:14.298Z,65.69
2019-06-01T01:36:49.913Z,65.47
2019-06-01T01:39:24.708Z,65.65
2019-06-01T01:41:59.294Z,65.68
2019-06-01T01:44:34.732Z,65.65
2019-06-01T01:47:08.084Z,65.62
2019-06-01T01:51:22.710Z,65.68
2019-06-01T01:53:56.659Z,65.81
2019-06-01T01:56:31.276Z,65.80
2019-06-01T01:59:05.957Z,65.92
2019-06-01T02:03:22.955Z,66.03
2019-06-01T02:06:00.466Z,66.31
2019-06-01T02:08:34.940Z,66.31
2019-06-01T02:11:09.311Z,66.12
2019-06-01T02:13:43.943Z,65.92
2019-06-01T02:16:18.338Z,66.07
2019-06-01T02:18:54.370Z,66.21
2019-06-01T02:21:29.278Z,66.07
2019-06-01T02:24:03.802Z,65.62
2019-06-01T02:26:37.946Z,65.97
2019-06-01T02:29:12.308Z,66.20
2019-06-01T02:31:47.885Z,66.37
2019-06-01T02:34:20.864Z,66.15
2019-06-01T02:36:56.501Z,66.10
2019-06-01T02:39:31.289Z,66.23
2019-06-01T02:42:07.603Z,66.33
2019-06-01T02:44:41.950Z,66.35
2019-06-01T02:47:16.339Z,66.24
2019-06-01T02:49:55.520Z,66.40
2019-06-01T02:52:29.941Z,66.35
2019-06-01T02:55:04.977Z,66.39
2019-06-01T02:57:40.728Z,66.39
2019-06-01T03:00:17.497Z,66.49
2019-06-01T03:02:52.096Z,66.57
2019-06-01T03:05:27.272Z,66.23
2019-06-01T03:08:03.412Z,66.23
2019-06-01T03:10:40.643Z,66.46
2019-06-01T03:14:02.692Z,66.43
2019-06-01T03:19:21.256Z,66.58
2019-06-01T03:22:04.820Z,66.55
2019-06-01T03:24:40.270Z,66.42
2019-06-01T03:27:17.780Z,66.42
2019-06-01T03:29:57.884Z,66.54
2019-06-01T03:32:36.864Z,66.58
2019-06-01T03:35:08.860Z,66.56
2019-06-01T03:37:43.250Z,66.63
2019-06-01T03:40:23.756Z,66.52
2019-06-01T03:42:54.333Z,66.59
2019-06-01T03:45:28.733Z,66.71
2019-06-01T03:48:03.128Z,66.74
2019-06-01T03:50:37.694Z,67.13
2019-06-01T03:53:12.062Z,67.13
2019-06-01T03:55:46.286Z,66.87
2019-06-01T03:58:20.764Z,66.69
2019-06-01T04:00:55.121Z,66.46
2019-06-01T04:03:29.665Z,66.48
2019-06-01T04:06:05.215Z,66.48
2019-06-01T04:08:39.724Z,66.67
2019-06-01T04:11:12.710Z,66.67
2019-06-01T04:13:47.756Z,66.45
2019-06-01T04:16:22.253Z,66.52
2019-06-01T04:18:56.667Z,66.87
2019-06-01T04:21:30.952Z,67.06
2019-06-01T04:24:05.974Z,67.18
2019-06-01T04:26:41.624Z,67.37
2019-06-01T04:29:16.250Z,67.37
2019-06-01T04:31:50.715Z,67.01
2019-06-01T04:34:23.696Z,67.03
2019-06-01T04:36:57.936Z,67.03
2019-06-01T04:39:32.276Z,66.82
2019-06-01T04:42:07.701Z,65.38
2019-06-01T04:44:40.887Z,65.13
2019-06-01T04:47:14.574Z,64.44
2019-06-01T04:49:49.994Z,64.27
2019-06-01T04:52:24.309Z,63.81
2019-06-01T04:54:58.761Z,63.81
2019-06-01T04:57:33.073Z,63.44
2019-06-01T05:00:19.813Z,63.39
2019-06-01T05:02:44.674Z,63.72
2019-06-01T05:05:19.122Z,63.72
2019-06-01T05:07:53.735Z,63.48
2019-06-01T05:10:26.805Z,63.48
2019-06-01T05:13:00.952Z,63.31
2019-06-01T05:15:35.123Z,63.10
2019-06-01T05:18:10.052Z,62.60
2019-06-01T05:20:45.647Z,62.35
2019-06-01T05:23:20.152Z,62.35
2019-06-01T05:25:54.596Z,61.63
2019-06-01T05:28:28.917Z,61.63
2019-06-01T05:31:03.215Z,61.92
2019-06-01T05:33:37.975Z,61.04
2019-06-01T05:36:14.300Z,60.53
2019-06-01T05:38:49.737Z,60.53
2019-06-01T05:41:24.292Z,61.18
2019-06-01T05:43:58.709Z,60.23
2019-06-01T05:46:31.718Z,59.75
2019-06-01T05:49:06.280Z,59.75
2019-06-01T05:51:40.711Z,59.39
2019-06-01T05:54:15.122Z,58.79
2019-06-01T05:56:49.765Z,58.75
2019-06-01T05:59:22.661Z,58.65
2019-06-01T06:01:56.946Z,58.26
2019-06-01T06:04:31.287Z,57.60
2019-06-01T06:07:05.896Z,57.20
2019-06-01T06:09:40.338Z,56.89
2019-06-01T06:12:15.497Z,56.70
2019-06-01T06:14:49.948Z,56.70
2019-06-01T06:17:24.731Z,56.80
2019-06-01T06:19:59.249Z,56.00
2019-06-01T06:22:33.687Z,55.98
2019-06-01T06:25:08.352Z,56.04
2019-06-01T06:27:42.756Z,55.86
2019-06-01T06:30:16.928Z,54.83
2019-06-01T06:33:06.929Z,54.04
2019-06-01T06:35:40.284Z,54.04
2019-06-01T06:38:15.679Z,54.11
2019-06-01T06:40:48.786Z,53.95
2019-06-01T06:43:32.246Z,52.30
2019-06-01T06:45:59.275Z,52.30
2019-06-01T06:48:33.725Z,52.46
2019-06-01T06:51:08.261Z,51.59
2019-06-01T06:53:43.014Z,50.82
2019-06-01T06:56:17.892Z,50.91
2019-06-01T06:58:52.355Z,50.25
2019-06-01T07:01:27.060Z,50.25
2019-06-01T07:04:12.268Z,49.21
2019-06-01T07:06:37.325Z,49.21
2019-06-01T07:09:11.894Z,48.90
2019-06-01T07:11:44.823Z,48.90
2019-06-01T07:14:17.688Z,48.37
2019-06-01T07:16:51.954Z,47.69
2019-06-01T07:19:27.782Z,47.33
2019-06-01T07:22:02.282Z,47.35
2019-06-01T07:24:36.900Z,46.38
2019-06-01T07:27:11.278Z,44.71
2019-06-01T07:29:45.732Z,45.45
2019-06-01T07:32:18.709Z,44.61
2019-06-01T07:34:53.132Z,44.42
2019-06-01T07:37:28.552Z,43.06
2019-06-01T07:40:03.089Z,43.06
2019-06-01T07:42:37.653Z,42.85
2019-06-01T07:45:12.113Z,42.85
2019-06-01T07:47:46.739Z,42.53
2019-06-01T07:50:20.002Z,41.86
2019-06-01T07:52:54.317Z,41.46
2019-06-01T07:55:29.717Z,40.91
2019-06-01T07:58:04.276Z,41.74
2019-06-01T08:00:38.953Z,40.98
2019-06-01T08:03:13.291Z,40.33
2019-06-01T08:05:47.942Z,40.00
2019-06-01T08:08:23.367Z,40.00
2019-06-01T08:10:57.900Z,39.17
2019-06-01T08:13:35.364Z,39.74
2019-06-01T08:16:08.697Z,37.88
2019-06-01T08:18:41.709Z,37.88
2019-06-01T08:21:15.946Z,37.44
2019-06-01T08:23:51.696Z,36.81
2019-06-01T08:26:26.492Z,36.81
2019-06-01T08:29:00.957Z,35.48
2019-06-01T08:31:35.353Z,36.73
2019-06-01T08:34:09.951Z,36.94
2019-06-01T08:36:44.310Z,36.88
2019-06-01T08:39:18.786Z,36.07
2019-06-01T08:41:51.867Z,35.69
2019-06-01T08:44:25.453Z,36.31
2019-06-01T08:46:59.940Z,35.72
2019-06-01T08:49:34.622Z,34.76
2019-06-01T08:52:07.808Z,35.84
2019-06-01T08:54:42.116Z,35.93
2019-06-01T08:57:16.800Z,33.67
2019-06-01T08:59:51.282Z,34.65
2019-06-01T09:02:26.604Z,34.74
2019-06-01T09:05:01.092Z,33.76
2019-06-01T09:07:35.729Z,33.71
2019-06-01T09:10:10.983Z,33.29
2019-06-01T09:13:16.778Z,33.42
2019-06-01T09:15:51.574Z,35.40
2019-06-01T09:18:27.452Z,35.40
2019-06-01T09:21:01.977Z,36.89
2019-06-01T09:23:37.866Z,36.90
2019-06-01T09:26:12.322Z,36.90
2019-06-01T09:28:47.533Z,36.87
2019-06-01T09:31:22.100Z,36.87
2019-06-01T09:33:56.979Z,35.72
2019-06-01T09:36:32.458Z,33.50
2019-06-01T09:39:09.282Z,33.50
2019-06-01T09:41:43.879Z,32.74
2019-06-01T09:44:17.018Z,33.13
2019-06-01T09:46:49.825Z,29.67
2019-06-01T09:49:22.709Z,29.67
2019-06-01T09:51:58.118Z,29.85
2019-06-01T09:54:34.489Z,28.81
2019-06-01T09:57:08.939Z,29.17
2019-06-01T09:59:43.299Z,28.21
2019-06-01T10:02:17.856Z,28.61
2019-06-01T10:04:52.288Z,27.11
2019-06-01T10:07:26.841Z,27.28
2019-06-01T10:10:01.301Z,26.38
2019-06-01T10:12:36.096Z,26.13
2019-06-01T10:15:10.878Z,26.15
2019-06-01T10:17:45.287Z,26.41
2019-06-01T10:20:20.656Z,26.61
2019-06-01T10:22:55.279Z,24.92
2019-06-01T10:25:30.326Z,27.11
2019-06-01T10:28:05.247Z,27.20
2019-06-01T10:30:41.808Z,27.11
2019-06-01T10:33:16.705Z,26.58
2019-06-01T10:35:51.147Z,26.58
2019-06-01T10:38:25.708Z,26.77
2019-06-01T10:41:00.278Z,27.16
2019-06-01T10:43:35.583Z,26.83
2019-06-01T10:46:08.878Z,27.02
2019-06-01T10:48:43.350Z,25.72
2019-06-01T10:51:17.953Z,25.36
2019-06-01T10:53:52.338Z,25.58
2019-06-01T10:56:26.683Z,26.02
2019-06-01T10:59:00.662Z,26.10
2019-06-01T11:01:35.545Z,26.92
2019-06-01T11:04:10.962Z,25.65
2019-06-01T11:06:48.648Z,25.32
2019-06-01T11:09:21.684Z,24.92
2019-06-01T11:11:54.864Z,25.49
2019-06-01T11:14:29.260Z,25.51
2019-06-01T11:17:03.778Z,24.20
2019-06-01T11:19:37.230Z,24.06
2019-06-01T11:22:11.958Z,23.61
2019-06-01T11:24:46.348Z,24.30
2019-06-01T11:27:21.457Z,24.30
2019-06-01T11:29:56.296Z,24.70
2019-06-01T11:32:30.950Z,23.01
2019-06-01T11:35:05.931Z,22.39
2019-06-01T11:37:40.483Z,23.16
2019-06-01T11:40:15.006Z,21.51
2019-06-01T11:42:49.865Z,24.09
2019-06-01T11:45:24.311Z,24.09
2019-06-01T11:47:58.942Z,26.28
2019-06-01T11:50:35.129Z,23.28
2019-06-01T11:53:09.916Z,23.28
2019-06-01T11:55:45.471Z,24.06
2019-06-01T11:58:20.002Z,24.14
2019-06-01T12:00:54.508Z,23.26
2019-06-01T12:03:29.155Z,23.26
2019-06-01T12:06:03.651Z,22.30
2019-06-01T12:08:37.976Z,22.30
2019-06-01T12:11:12.266Z,22.22
2019-06-01T12:13:47.095Z,21.58
2019-06-01T12:16:21.684Z,20.59
2019-06-01T12:18:54.645Z,19.72
2019-06-01T12:21:28.962Z,19.72
2019-06-01T12:24:03.376Z,18.57
2019-06-01T12:26:37.786Z,18.57
2019-06-01T12:29:12.053Z,18.63
2019-06-01T12:31:46.643Z,17.92
2019-06-01T12:34:21.284Z,17.92
2019-06-01T12:36:55.923Z,18.33
2019-06-01T12:39:30.310Z,18.38
2019-06-01T12:42:05.273Z,18.86
2019-06-01T12:44:39.843Z,17.86
2019-06-01T12:47:14.464Z,17.86
2019-06-01T12:49:49.300Z,17.35
2019-06-01T12:52:24.286Z,17.18
2019-06-01T12:54:59.108Z,17.08
2019-06-01T12:57:33.742Z,17.07
2019-06-01T13:00:07.419Z,17.37
2019-06-01T13:02:46.227Z,17.00
2019-06-01T13:05:18.563Z,15.56
2019-06-01T13:08:01.735Z,16.52
2019-06-01T13:10:30.013Z,16.96
2019-06-01T13:13:04.753Z,18.19
2019-06-01T13:15:39.280Z,17.34
2019-06-01T13:18:14.064Z,16.63
2019-06-01T13:20:49.522Z,16.72
2019-06-01T13:23:23.056Z,16.72
2019-06-01T13:25:57.390Z,16.10
2019-06-01T13:28:38.055Z,15.57
2019-06-01T13:31:08.341Z,15.86
2019-06-01T13:33:42.866Z,15.54
2019-06-01T13:36:18.304Z,15.39
2019-06-01T13:38:54.279Z,15.37
2019-06-01T13:41:28.697Z,16.25
2019-06-01T13:44:02.007Z,15.58
2019-06-01T13:46:36.370Z,15.58
2019-06-01T13:49:10.927Z,16.31
2019-06-01T13:51:46.005Z,16.01
2019-06-01T13:54:21.327Z,16.01
2019-06-01T13:56:56.105Z,15.93
2019-06-01T13:59:30.662Z,16.36
2019-06-01T14:02:03.705Z,15.68
2019-06-01T14:04:37.778Z,15.82
2019-06-01T14:07:10.700Z,15.34
2019-06-01T14:09:45.240Z,15.57
2019-06-01T14:12:19.732Z,17.00
2019-06-01T14:14:53.948Z,19.50
2019-06-01T14:18:01.357Z,20.33
2019-06-01T14:20:35.796Z,21.56
2019-06-01T14:23:10.277Z,20.36
2019-06-01T14:25:45.888Z,21.00
2019-06-01T14:28:20.667Z,21.61
2019-06-01T14:30:54.369Z,21.61
2019-06-01T14:33:29.270Z,21.12
2019-06-01T14:36:03.942Z,20.90
2019-06-01T14:38:46.845Z,20.77
2019-06-01T14:41:14.265Z,20.96
2019-06-01T14:43:51.186Z,20.09
2019-06-01T14:46:25.694Z,19.48
2019-06-01T14:49:00.262Z,18.63
2019-06-01T14:51:34.775Z,19.38
2019-06-01T14:54:09.271Z,19.46
2019-06-01T14:56:43.694Z,19.36
2019-06-01T14:59:18.375Z,20.02
2019-06-01T15:01:54.240Z,20.62
2019-06-01T15:04:28.890Z,21.23
2019-06-01T15:07:04.342Z,21.95
2019-06-01T15:09:38.998Z,22.16
2019-06-01T15:12:13.426Z,23.06
2019-06-01T15:14:48.516Z,23.68
2019-06-01T15:17:23.264Z,24.04
2019-06-01T15:19:58.288Z,25.46
2019-06-01T15:22:33.282Z,25.66
2019-06-01T15:25:08.956Z,25.59
2019-06-01T15:27:43.603Z,26.38
2019-06-01T15:30:18.944Z,27.63
2019-06-01T15:32:54.069Z,29.57
2019-06-01T15:35:28.721Z,29.29
2019-06-01T15:38:04.408Z,29.29
2019-06-01T15:40:37.745Z,30.23
2019-06-01T15:43:10.816Z,29.23
2019-06-01T15:45:45.093Z,28.94
2019-06-01T15:48:19.730Z,30.48
2019-06-01T15:50:59.507Z,31.09
2019-06-01T15:53:31.472Z,31.09
2019-06-01T15:56:06.895Z,30.26
2019-06-01T15:58:52.342Z,30.75
2019-06-01T16:01:17.647Z,30.15
2019-06-01T16:03:50.700Z,30.15
2019-06-01T16:06:24.948Z,30.34
2019-06-01T16:08:59.391Z,30.23
2019-06-01T16:11:33.927Z,30.23
2019-06-01T16:14:08.302Z,30.96
2019-06-01T16:16:42.794Z,31.70
2019-06-01T16:19:15.676Z,32.10
2019-06-01T16:21:49.891Z,30.83
2019-06-01T16:24:24.137Z,30.93
2019-06-01T16:26:58.735Z,31.40
2019-06-01T16:29:32.956Z,32.28
2019-06-01T16:32:07.177Z,32.17
2019-06-01T16:34:41.593Z,32.22
2019-06-01T16:37:15.947Z,32.75
2019-06-01T16:39:58.704Z,32.31
2019-06-01T16:42:26.288Z,32.08
2019-06-01T16:45:01.687Z,31.29
2019-06-01T16:47:35.389Z,31.60
2019-06-01T16:50:11.998Z,31.92
2019-06-01T16:52:46.372Z,32.18
2019-06-01T16:55:22.297Z,32.18
2019-06-01T16:57:57.128Z,32.37
2019-06-01T17:00:31.685Z,32.79
2019-06-01T17:03:05.127Z,32.85
2019-06-01T17:05:39.954Z,31.85
2019-06-01T17:08:14.987Z,31.77
2019-06-01T17:10:49.784Z,31.77
2019-06-01T17:13:23.010Z,32.89
2019-06-01T17:15:57.310Z,33.15
2019-06-01T17:20:52.949Z,33.51
2019-06-01T17:23:30.581Z,34.05
2019-06-01T17:26:08.522Z,34.05
2019-06-01T17:28:45.321Z,33.41
2019-06-01T17:31:20.126Z,32.43
2019-06-01T17:33:54.950Z,33.46
2019-06-01T17:36:29.303Z,34.16
2019-06-01T17:39:04.292Z,34.50
2019-06-01T17:41:38.930Z,34.86
2019-06-01T17:44:13.341Z,34.98
2019-06-01T17:46:53.339Z,35.42
2019-06-01T17:49:24.309Z,35.79
2019-06-01T17:51:59.289Z,36.10
2019-06-01T17:54:33.964Z,36.10
2019-06-01T17:57:09.286Z,36.00
2019-06-01T17:59:44.390Z,36.26
2019-06-01T18:02:19.168Z,36.26
2019-06-01T18:04:53.792Z,36.68
2019-06-01T18:07:27.940Z,36.83
2019-06-01T18:10:02.515Z,37.32
2019-06-01T18:12:37.285Z,37.21
2019-06-01T18:15:12.848Z,37.54
2019-06-01T18:17:47.578Z,37.37
2019-06-01T18:20:22.292Z,37.70
2019-06-01T18:22:57.396Z,37.75
2019-06-01T18:25:33.572Z,38.01
2019-06-01T18:28:14.651Z,37.92
2019-06-01T18:30:44.672Z,38.13
2019-06-01T18:33:20.595Z,38.59
2019-06-01T18:35:55.732Z,38.59
2019-06-01T18:38:30.767Z,38.84
2019-06-01T18:41:13.422Z,38.97
2019-06-01T18:43:41.750Z,39.85
2019-06-01T18:46:17.376Z,40.11
2019-06-01T18:48:51.913Z,40.11
2019-06-01T18:51:26.971Z,40.60
2019-06-01T18:54:01.623Z,41.68
2019-06-01T18:56:37.289Z,41.68
2019-06-01T18:59:12.298Z,42.36
2019-06-01T19:01:46.944Z,42.83
2019-06-01T19:04:21.988Z,43.71
2019-06-01T19:06:56.756Z,44.25
2019-06-01T19:09:29.868Z,44.25
2019-06-01T19:12:04.340Z,44.44
2019-06-01T19:14:39.163Z,44.67
2019-06-01T19:17:14.404Z,44.82
2019-06-01T19:19:49.291Z,45.02
2019-06-01T19:22:23.795Z,45.67
2019-06-01T19:24:57.140Z,45.67
2019-06-01T19:27:31.674Z,46.10
2019-06-01T19:30:07.093Z,45.93
2019-06-01T19:32:42.275Z,45.68
2019-06-01T19:35:17.322Z,45.99
2019-06-01T19:40:00.686Z,46.35
2019-06-01T19:42:34.066Z,46.50
2019-06-01T19:45:23.554Z,47.17
2019-06-01T19:47:46.296Z,47.17
2019-06-01T19:50:21.498Z,47.59
2019-06-01T19:52:56.292Z,47.73
2019-06-01T19:55:30.756Z,48.28
2019-06-01T19:58:06.329Z,48.35
2019-06-01T20:00:40.955Z,47.98
2019-06-01T20:03:20.245Z,48.70
2019-06-01T20:05:51.914Z,48.70
2019-06-01T20:08:26.289Z,49.05
2019-06-01T20:11:00.794Z,48.89
2019-06-01T20:13:33.825Z,48.98
2019-06-01T20:16:08.300Z,48.79
2019-06-01T20:18:44.742Z,49.03
2019-06-01T20:21:18.858Z,49.03
2019-06-01T20:23:53.913Z,49.30
2019-06-01T20:26:40.443Z,49.00
2019-06-01T20:29:04.634Z,48.68
2019-06-01T20:31:38.946Z,48.68
2019-06-01T20:34:14.347Z,48.94
2019-06-01T20:37:11.871Z,49.37
2019-06-01T20:39:46.287Z,49.81
2019-06-01T20:42:30.192Z,50.18
2019-06-01T20:44:59.645Z,50.07
2019-06-01T20:47:32.682Z,49.96
2019-06-01T20:50:10.336Z,50.24
2019-06-01T20:52:44.786Z,50.13
2019-06-01T20:55:19.276Z,50.42
2019-06-01T20:57:53.705Z,50.46
2019-06-01T21:00:26.708Z,50.46
2019-06-01T21:03:00.963Z,51.06
2019-06-01T21:05:35.316Z,51.23
2019-06-01T21:10:24.203Z,51.58
2019-06-01T21:12:59.008Z,51.83
2019-06-01T21:15:33.714Z,51.27
2019-06-01T21:18:07.284Z,51.37
2019-06-01T21:20:41.529Z,51.89
2019-06-01T21:23:16.607Z,51.89
2019-06-01T21:25:51.287Z,51.83
2019-06-01T21:28:26.046Z,52.06
2019-06-01T21:31:00.674Z,52.64
2019-06-01T21:33:33.992Z,52.64
2019-06-01T21:36:08.137Z,52.65
2019-06-01T21:38:42.771Z,52.97
2019-06-01T21:41:17.358Z,52.97
2019-06-01T21:43:52.316Z,52.99
2019-06-01T21:46:26.957Z,52.99
2019-06-01T21:49:01.499Z,53.31
2019-06-01T21:51:36.282Z,53.05
2019-06-01T21:54:11.257Z,52.78
2019-06-01T21:56:45.985Z,52.78
2019-06-01T21:59:20.621Z,52.91
2019-06-01T22:01:55.363Z,52.91
2019-06-01T22:04:30.107Z,53.10
2019-06-01T22:07:05.157Z,53.41
2019-06-01T22:09:40.943Z,53.61
2019-06-01T22:12:17.475Z,53.70
2019-06-01T22:14:52.300Z,53.70
2019-06-01T22:17:27.902Z,53.80
2019-06-01T22:20:02.999Z,53.74
2019-06-01T22:22:37.730Z,53.97
2019-06-01T22:25:13.281Z,53.97
2019-06-01T22:27:48.298Z,54.26
2019-06-01T22:30:24.471Z,54.26
2019-06-01T22:32:59.365Z,54.73
2019-06-01T22:35:34.314Z,54.50
2019-06-01T22:38:08.970Z,54.16
2019-06-01T22:40:43.598Z,54.38
2019-06-01T22:43:35.113Z,54.88
2019-06-01T22:45:54.639Z,54.77
2019-06-01T22:48:29.015Z,54.77
2019-06-01T22:51:03.681Z,54.63
2019-06-01T22:53:38.109Z,54.63
2019-06-01T22:56:12.866Z,55.38
2019-06-01T22:58:47.639Z,55.38
2019-06-01T23:01:22.894Z,55.08
2019-06-01T23:03:57.691Z,55.02
2019-06-01T23:06:32.364Z,55.02
2019-06-01T23:09:09.314Z,55.34
2019-06-01T23:11:43.868Z,55.42
2019-06-01T23:14:19.560Z,55.63
2019-06-01T23:16:54.283Z,55.59
2019-06-01T23:19:29.963Z,55.58
2019-06-01T23:22:05.305Z,55.83
2019-06-01T23:24:40.285Z,55.83
2019-06-01T23:27:15.331Z,55.98
2019-06-01T23:29:50.129Z,56.10
2019-06-01T23:32:24.762Z,56.30
2019-06-01T23:34:57.750Z,56.50
2019-06-01T23:37:32.939Z,56.46
2019-06-01T23:40:09.353Z,56.62
2019-06-01T23:42:43.979Z,56.62
2019-06-01T23:45:18.656Z,56.84
2019-06-01T23:47:54.288Z,56.73
2019-06-01T23:50:29.211Z,56.89
2019-06-01T23:53:13.077Z,56.84
2019-06-01T23:55:40.758Z,56.86
